sensor_id;sensor_type;location;lat;lon;timestamp;P1;durP1;ratioP1;P2;durP2;ratioP2
26864;SDS011;40618;51.166;10.322;2023-09-19T00:00:36;3.35;;;0.90;;
26864;SDS011;40618;51.166;10.322;2023-09-19T00:03:02;1.08;;;0.77;;
26864;SDS011;40618;51.166;10.322;2023-09-19T00:05:29;2.80;;;1.20;;
26864;SDS011;40618;51.166;10.322;2023-09-19T00:07:59;1.02;;;0.73;;
26864;SDS011;40618;51.166;10.322;2023-09-19T00:10:29;2.58;;;1.10;;
26864;SDS011;40618;51.166;10.322;2023-09-19T00:13:00;1.58;;;0.90;;
26864;SDS011;40618;51.166;10.322;2023-09-19T00:15:36;0.90;;;0.73;;
26864;SDS011;40618;51.166;10.322;2023-09-19T00:18:05;2.97;;;0.77;;
26864;SDS011;40618;51.166;10.322;2023-09-19T00:20:32;2.53;;;0.98;;
26864;SDS011;40618;51.166;10.322;2023-09-19T00:22:59;2.03;;;1.10;;
26864;SDS011;40618;51.166;10.322;2023-09-19T00:25:33;2.05;;;0.95;;
26864;SDS011;40618;51.166;10.322;2023-09-19T00:28:00;5.13;;;1.00;;
26864;SDS011;40618;51.166;10.322;2023-09-19T00:30:26;2.38;;;0.77;;
26864;SDS011;40618;51.166;10.322;2023-09-19T00:32:52;1.08;;;0.82;;
26864;SDS011;40618;51.166;10.322;2023-09-19T00:35:18;1.23;;;0.77;;
26864;SDS011;40618;51.166;10.322;2023-09-19T00:37:44;2.85;;;1.08;;
26864;SDS011;40618;51.166;10.322;2023-09-19T00:40:10;0.80;;;0.80;;
26864;SDS011;40618;51.166;10.322;2023-09-19T00:42:40;1.77;;;0.90;;
26864;SDS011;40618;51.166;10.322;2023-09-19T00:45:09;2.20;;;0.80;;
26864;SDS011;40618;51.166;10.322;2023-09-19T00:47:49;1.08;;;0.98;;
26864;SDS011;40618;51.166;10.322;2023-09-19T00:50:17;1.33;;;0.68;;
26864;SDS011;40618;51.166;10.322;2023-09-19T00:52:46;3.75;;;1.13;;
26864;SDS011;40618;51.166;10.322;2023-09-19T00:55:14;0.98;;;0.68;;
26864;SDS011;40618;51.166;10.322;2023-09-19T00:57:43;1.15;;;0.95;;
26864;SDS011;40618;51.166;10.322;2023-09-19T01:00:09;0.90;;;0.70;;
26864;SDS011;40618;51.166;10.322;2023-09-19T01:02:40;1.80;;;0.90;;
26864;SDS011;40618;51.166;10.322;2023-09-19T01:05:10;1.10;;;0.90;;
26864;SDS011;40618;51.166;10.322;2023-09-19T01:07:37;1.60;;;1.13;;
26864;SDS011;40618;51.166;10.322;2023-09-19T01:10:06;0.60;;;0.60;;
26864;SDS011;40618;51.166;10.322;2023-09-19T01:15:17;1.77;;;0.82;;
26864;SDS011;40618;51.166;10.322;2023-09-19T01:17:49;1.20;;;0.80;;
26864;SDS011;40618;51.166;10.322;2023-09-19T01:20:49;1.92;;;0.95;;
26864;SDS011;40618;51.166;10.322;2023-09-19T01:29:29;1.17;;;1.08;;
26864;SDS011;40618;51.166;10.322;2023-09-19T01:32:08;1.02;;;0.90;;
26864;SDS011;40618;51.166;10.322;2023-09-19T01:34:45;1.55;;;0.88;;
26864;SDS011;40618;51.166;10.322;2023-09-19T01:37:15;1.58;;;0.80;;
26864;SDS011;40618;51.166;10.322;2023-09-19T01:39:49;3.00;;;0.80;;
26864;SDS011;40618;51.166;10.322;2023-09-19T01:51:37;0.55;;;0.55;;
26864;SDS011;40618;51.166;10.322;2023-09-19T01:54:18;3.45;;;0.90;;
26864;SDS011;40618;51.166;10.322;2023-09-19T01:56:59;2.47;;;0.70;;
26864;SDS011;40618;51.166;10.322;2023-09-19T01:59:45;0.90;;;0.73;;
26864;SDS011;40618;51.166;10.322;2023-09-19T02:02:20;2.67;;;1.00;;
26864;SDS011;40618;51.166;10.322;2023-09-19T02:04:48;1.17;;;0.90;;
26864;SDS011;40618;51.166;10.322;2023-09-19T02:07:15;1.88;;;0.93;;
26864;SDS011;40618;51.166;10.322;2023-09-19T02:09:42;1.83;;;1.00;;
26864;SDS011;40618;51.166;10.322;2023-09-19T02:12:08;1.10;;;0.75;;
26864;SDS011;40618;51.166;10.322;2023-09-19T02:14:34;1.35;;;0.73;;
26864;SDS011;40618;51.166;10.322;2023-09-19T02:17:01;2.53;;;1.10;;
26864;SDS011;40618;51.166;10.322;2023-09-19T02:19:32;1.48;;;0.77;;
26864;SDS011;40618;51.166;10.322;2023-09-19T02:21:58;2.10;;;0.80;;
26864;SDS011;40618;51.166;10.322;2023-09-19T02:24:28;1.15;;;0.90;;
26864;SDS011;40618;51.166;10.322;2023-09-19T02:26:54;0.63;;;0.60;;
26864;SDS011;40618;51.166;10.322;2023-09-19T02:29:20;1.17;;;0.93;;
26864;SDS011;40618;51.166;10.322;2023-09-19T02:31:47;1.23;;;0.73;;
26864;SDS011;40618;51.166;10.322;2023-09-19T02:34:13;1.33;;;0.70;;
26864;SDS011;40618;51.166;10.322;2023-09-19T02:36:41;1.80;;;0.80;;
26864;SDS011;40618;51.166;10.322;2023-09-19T02:39:09;1.10;;;0.80;;
26864;SDS011;40618;51.166;10.322;2023-09-19T02:41:36;1.48;;;0.80;;
26864;SDS011;40618;51.166;10.322;2023-09-19T02:44:02;3.20;;;0.95;;
26864;SDS011;40618;51.166;10.322;2023-09-19T02:46:28;2.08;;;0.80;;
26864;SDS011;40618;51.166;10.322;2023-09-19T02:48:53;0.90;;;0.68;;
26864;SDS011;40618;51.166;10.322;2023-09-19T02:51:20;1.10;;;0.63;;
26864;SDS011;40618;51.166;10.322;2023-09-19T02:53:45;1.90;;;0.85;;
26864;SDS011;40618;51.166;10.322;2023-09-19T02:56:12;1.23;;;0.85;;
26864;SDS011;40618;51.166;10.322;2023-09-19T02:58:39;2.03;;;0.90;;
26864;SDS011;40618;51.166;10.322;2023-09-19T03:01:12;1.67;;;1.25;;
26864;SDS011;40618;51.166;10.322;2023-09-19T03:03:38;1.63;;;1.05;;
26864;SDS011;40618;51.166;10.322;2023-09-19T03:06:07;0.93;;;0.68;;
26864;SDS011;40618;51.166;10.322;2023-09-19T03:08:34;0.93;;;0.63;;
26864;SDS011;40618;51.166;10.322;2023-09-19T03:11:04;2.30;;;0.63;;
26864;SDS011;40618;51.166;10.322;2023-09-19T03:13:36;0.98;;;0.80;;
26864;SDS011;40618;51.166;10.322;2023-09-19T03:16:03;2.58;;;0.90;;
26864;SDS011;40618;51.166;10.322;2023-09-19T03:18:33;1.70;;;0.75;;
26864;SDS011;40618;51.166;10.322;2023-09-19T03:20:59;1.77;;;0.88;;
26864;SDS011;40618;51.166;10.322;2023-09-19T03:23:26;1.85;;;0.80;;
26864;SDS011;40618;51.166;10.322;2023-09-19T03:25:53;1.13;;;0.73;;
26864;SDS011;40618;51.166;10.322;2023-09-19T03:28:21;1.27;;;0.75;;
26864;SDS011;40618;51.166;10.322;2023-09-19T03:31:00;0.90;;;0.60;;
26864;SDS011;40618;51.166;10.322;2023-09-19T03:33:28;0.68;;;0.65;;
26864;SDS011;40618;51.166;10.322;2023-09-19T03:35:56;1.23;;;0.80;;
26864;SDS011;40618;51.166;10.322;2023-09-19T03:38:24;1.48;;;0.63;;
26864;SDS011;40618;51.166;10.322;2023-09-19T03:40:51;1.45;;;0.80;;
26864;SDS011;40618;51.166;10.322;2023-09-19T03:43:16;1.00;;;0.70;;
26864;SDS011;40618;51.166;10.322;2023-09-19T03:45:42;1.48;;;0.80;;
26864;SDS011;40618;51.166;10.322;2023-09-19T03:48:09;3.25;;;1.35;;
26864;SDS011;40618;51.166;10.322;2023-09-19T03:50:35;3.58;;;0.90;;
26864;SDS011;40618;51.166;10.322;2023-09-19T03:53:01;1.27;;;1.02;;
26864;SDS011;40618;51.166;10.322;2023-09-19T03:55:27;2.50;;;0.90;;
26864;SDS011;40618;51.166;10.322;2023-09-19T03:57:53;1.17;;;0.68;;
26864;SDS011;40618;51.166;10.322;2023-09-19T04:00:19;2.42;;;1.00;;
26864;SDS011;40618;51.166;10.322;2023-09-19T04:02:47;0.95;;;0.80;;
26864;SDS011;40618;51.166;10.322;2023-09-19T04:05:13;1.30;;;0.70;;
26864;SDS011;40618;51.166;10.322;2023-09-19T04:07:39;1.55;;;0.98;;
26864;SDS011;40618;51.166;10.322;2023-09-19T04:10:05;2.08;;;0.90;;
26864;SDS011;40618;51.166;10.322;2023-09-19T04:12:33;3.28;;;0.85;;
26864;SDS011;40618;51.166;10.322;2023-09-19T04:14:59;1.95;;;0.80;;
26864;SDS011;40618;51.166;10.322;2023-09-19T04:17:25;2.28;;;0.80;;
26864;SDS011;40618;51.166;10.322;2023-09-19T04:19:50;1.25;;;0.70;;
26864;SDS011;40618;51.166;10.322;2023-09-19T04:22:16;3.28;;;0.93;;
26864;SDS011;40618;51.166;10.322;2023-09-19T04:24:42;2.55;;;0.82;;
26864;SDS011;40618;51.166;10.322;2023-09-19T04:27:08;1.73;;;1.08;;
26864;SDS011;40618;51.166;10.322;2023-09-19T04:29:35;2.75;;;1.00;;
26864;SDS011;40618;51.166;10.322;2023-09-19T04:32:00;3.75;;;1.00;;
26864;SDS011;40618;51.166;10.322;2023-09-19T04:34:29;2.53;;;0.77;;
26864;SDS011;40618;51.166;10.322;2023-09-19T04:36:55;2.75;;;1.10;;
26864;SDS011;40618;51.166;10.322;2023-09-19T04:39:23;2.70;;;0.90;;
26864;SDS011;40618;51.166;10.322;2023-09-19T04:41:51;2.30;;;0.80;;
26864;SDS011;40618;51.166;10.322;2023-09-19T04:44:17;5.75;;;0.85;;
26864;SDS011;40618;51.166;10.322;2023-09-19T04:46:44;1.67;;;0.90;;
26864;SDS011;40618;51.166;10.322;2023-09-19T04:49:11;1.20;;;0.75;;
26864;SDS011;40618;51.166;10.322;2023-09-19T04:51:37;1.42;;;0.75;;
26864;SDS011;40618;51.166;10.322;2023-09-19T04:54:04;2.08;;;0.90;;
26864;SDS011;40618;51.166;10.322;2023-09-19T04:56:30;2.05;;;0.85;;
26864;SDS011;40618;51.166;10.322;2023-09-19T04:58:57;3.33;;;0.85;;
26864;SDS011;40618;51.166;10.322;2023-09-19T05:01:24;4.20;;;1.10;;
26864;SDS011;40618;51.166;10.322;2023-09-19T05:03:50;4.60;;;0.90;;
26864;SDS011;40618;51.166;10.322;2023-09-19T05:06:18;2.05;;;0.95;;
26864;SDS011;40618;51.166;10.322;2023-09-19T05:08:46;2.63;;;0.77;;
26864;SDS011;40618;51.166;10.322;2023-09-19T05:11:18;1.83;;;0.88;;
26864;SDS011;40618;51.166;10.322;2023-09-19T05:13:48;2.05;;;0.60;;
26864;SDS011;40618;51.166;10.322;2023-09-19T05:16:18;3.70;;;0.90;;
26864;SDS011;40618;51.166;10.322;2023-09-19T05:18:44;3.45;;;0.82;;
26864;SDS011;40618;51.166;10.322;2023-09-19T05:21:09;2.92;;;0.80;;
26864;SDS011;40618;51.166;10.322;2023-09-19T05:23:35;1.90;;;0.80;;
26864;SDS011;40618;51.166;10.322;2023-09-19T05:26:02;3.75;;;1.00;;
26864;SDS011;40618;51.166;10.322;2023-09-19T05:28:28;3.38;;;1.40;;
26864;SDS011;40618;51.166;10.322;2023-09-19T05:30:54;2.22;;;0.80;;
26864;SDS011;40618;51.166;10.322;2023-09-19T05:33:20;4.20;;;1.25;;
26864;SDS011;40618;51.166;10.322;2023-09-19T05:35:49;2.05;;;0.93;;
26864;SDS011;40618;51.166;10.322;2023-09-19T05:38:14;3.08;;;0.90;;
26864;SDS011;40618;51.166;10.322;2023-09-19T05:40:44;2.55;;;0.93;;
26864;SDS011;40618;51.166;10.322;2023-09-19T05:43:10;1.40;;;0.82;;
26864;SDS011;40618;51.166;10.322;2023-09-19T05:45:36;2.15;;;1.20;;
26864;SDS011;40618;51.166;10.322;2023-09-19T05:48:12;1.48;;;0.80;;
26864;SDS011;40618;51.166;10.322;2023-09-19T05:50:40;3.78;;;1.00;;
26864;SDS011;40618;51.166;10.322;2023-09-19T05:53:07;2.00;;;1.08;;
26864;SDS011;40618;51.166;10.322;2023-09-19T05:55:37;2.40;;;0.55;;
26864;SDS011;40618;51.166;10.322;2023-09-19T05:58:02;2.88;;;0.90;;
26864;SDS011;40618;51.166;10.322;2023-09-19T06:00:29;2.20;;;0.95;;
26864;SDS011;40618;51.166;10.322;2023-09-19T06:02:55;4.30;;;1.63;;
26864;SDS011;40618;51.166;10.322;2023-09-19T06:05:26;5.40;;;1.20;;
26864;SDS011;40618;51.166;10.322;2023-09-19T06:07:53;5.03;;;0.85;;
26864;SDS011;40618;51.166;10.322;2023-09-19T06:10:19;5.93;;;1.20;;
26864;SDS011;40618;51.166;10.322;2023-09-19T06:12:48;4.68;;;1.10;;
26864;SDS011;40618;51.166;10.322;2023-09-19T06:15:15;3.58;;;1.00;;
26864;SDS011;40618;51.166;10.322;2023-09-19T06:17:47;2.55;;;1.35;;
26864;SDS011;40618;51.166;10.322;2023-09-19T06:20:14;2.38;;;0.90;;
26864;SDS011;40618;51.166;10.322;2023-09-19T06:22:42;4.20;;;1.27;;
26864;SDS011;40618;51.166;10.322;2023-09-19T06:25:09;1.90;;;1.17;;
26864;SDS011;40618;51.166;10.322;2023-09-19T06:27:37;4.07;;;0.90;;
26864;SDS011;40618;51.166;10.322;2023-09-19T06:30:06;3.65;;;1.25;;
26864;SDS011;40618;51.166;10.322;2023-09-19T06:32:33;3.33;;;0.88;;
26864;SDS011;40618;51.166;10.322;2023-09-19T06:34:59;5.75;;;0.98;;
26864;SDS011;40618;51.166;10.322;2023-09-19T06:37:27;1.65;;;0.98;;
26864;SDS011;40618;51.166;10.322;2023-09-19T06:39:53;6.35;;;1.30;;
26864;SDS011;40618;51.166;10.322;2023-09-19T06:42:19;3.00;;;1.08;;
26864;SDS011;40618;51.166;10.322;2023-09-19T06:44:44;4.35;;;1.33;;
26864;SDS011;40618;51.166;10.322;2023-09-19T06:47:10;5.95;;;1.33;;
26864;SDS011;40618;51.166;10.322;2023-09-19T06:49:36;10.52;;;1.55;;
26864;SDS011;40618;51.166;10.322;2023-09-19T06:52:02;7.53;;;1.40;;
26864;SDS011;40618;51.166;10.322;2023-09-19T06:54:28;3.70;;;1.45;;
26864;SDS011;40618;51.166;10.322;2023-09-19T06:56:59;6.30;;;1.30;;
26864;SDS011;40618;51.166;10.322;2023-09-19T06:59:25;7.50;;;1.73;;
26864;SDS011;40618;51.166;10.322;2023-09-19T07:01:50;3.63;;;1.40;;
26864;SDS011;40618;51.166;10.322;2023-09-19T07:04:16;4.20;;;1.35;;
26864;SDS011;40618;51.166;10.322;2023-09-19T07:06:44;5.22;;;1.52;;
26864;SDS011;40618;51.166;10.322;2023-09-19T07:09:19;3.40;;;1.40;;
26864;SDS011;40618;51.166;10.322;2023-09-19T07:11:44;7.05;;;1.50;;
26864;SDS011;40618;51.166;10.322;2023-09-19T07:14:10;3.85;;;1.50;;
26864;SDS011;40618;51.166;10.322;2023-09-19T07:16:37;6.70;;;1.48;;
26864;SDS011;40618;51.166;10.322;2023-09-19T07:19:04;6.65;;;1.40;;
26864;SDS011;40618;51.166;10.322;2023-09-19T07:21:30;3.00;;;1.20;;
26864;SDS011;40618;51.166;10.322;2023-09-19T07:23:59;3.33;;;1.00;;
26864;SDS011;40618;51.166;10.322;2023-09-19T07:26:26;5.22;;;1.60;;
26864;SDS011;40618;51.166;10.322;2023-09-19T07:28:53;5.90;;;1.92;;
26864;SDS011;40618;51.166;10.322;2023-09-19T07:31:19;2.92;;;1.17;;
26864;SDS011;40618;51.166;10.322;2023-09-19T07:33:45;3.38;;;1.30;;
26864;SDS011;40618;51.166;10.322;2023-09-19T07:36:11;2.53;;;1.20;;
26864;SDS011;40618;51.166;10.322;2023-09-19T07:38:41;6.75;;;1.40;;
26864;SDS011;40618;51.166;10.322;2023-09-19T07:41:07;2.58;;;1.02;;
26864;SDS011;40618;51.166;10.322;2023-09-19T07:43:36;5.32;;;1.60;;
26864;SDS011;40618;51.166;10.322;2023-09-19T07:46:08;3.53;;;1.40;;
26864;SDS011;40618;51.166;10.322;2023-09-19T07:48:37;5.13;;;1.88;;
26864;SDS011;40618;51.166;10.322;2023-09-19T07:51:06;8.77;;;2.22;;
26864;SDS011;40618;51.166;10.322;2023-09-19T07:53:34;6.15;;;1.10;;
26864;SDS011;40618;51.166;10.322;2023-09-19T07:56:07;5.47;;;1.38;;
26864;SDS011;40618;51.166;10.322;2023-09-19T07:58:34;4.63;;;1.10;;
26864;SDS011;40618;51.166;10.322;2023-09-19T08:01:05;3.47;;;1.80;;
26864;SDS011;40618;51.166;10.322;2023-09-19T08:03:33;4.90;;;1.27;;
26864;SDS011;40618;51.166;10.322;2023-09-19T08:06:02;5.40;;;1.35;;
26864;SDS011;40618;51.166;10.322;2023-09-19T08:08:28;3.05;;;1.52;;
26864;SDS011;40618;51.166;10.322;2023-09-19T08:10:54;4.18;;;1.48;;
26864;SDS011;40618;51.166;10.322;2023-09-19T08:13:23;4.03;;;1.45;;
26864;SDS011;40618;51.166;10.322;2023-09-19T08:15:50;3.75;;;1.15;;
26864;SDS011;40618;51.166;10.322;2023-09-19T08:18:18;2.42;;;1.23;;
26864;SDS011;40618;51.166;10.322;2023-09-19T08:20:51;4.75;;;1.48;;
26864;SDS011;40618;51.166;10.322;2023-09-19T08:23:18;5.25;;;1.42;;
26864;SDS011;40618;51.166;10.322;2023-09-19T08:25:47;4.15;;;1.52;;
26864;SDS011;40618;51.166;10.322;2023-09-19T08:28:13;8.43;;;1.65;;
26864;SDS011;40618;51.166;10.322;2023-09-19T08:30:43;1.67;;;0.95;;
26864;SDS011;40618;51.166;10.322;2023-09-19T08:33:10;2.92;;;1.00;;
26864;SDS011;40618;51.166;10.322;2023-09-19T08:35:36;2.55;;;1.17;;
26864;SDS011;40618;51.166;10.322;2023-09-19T08:38:04;3.58;;;1.30;;
26864;SDS011;40618;51.166;10.322;2023-09-19T08:40:31;2.35;;;1.25;;
26864;SDS011;40618;51.166;10.322;2023-09-19T08:42:58;7.32;;;1.10;;
26864;SDS011;40618;51.166;10.322;2023-09-19T08:45:25;3.17;;;1.55;;
26864;SDS011;40618;51.166;10.322;2023-09-19T08:50:49;3.90;;;1.23;;
26864;SDS011;40618;51.166;10.322;2023-09-19T08:53:26;5.82;;;1.20;;
26864;SDS011;40618;51.166;10.322;2023-09-19T08:56:14;2.78;;;1.00;;
26864;SDS011;40618;51.166;10.322;2023-09-19T08:58:50;4.75;;;1.50;;
26864;SDS011;40618;51.166;10.322;2023-09-19T09:01:23;6.18;;;1.42;;
26864;SDS011;40618;51.166;10.322;2023-09-19T09:03:54;3.47;;;1.50;;
26864;SDS011;40618;51.166;10.322;2023-09-19T09:06:22;2.55;;;1.00;;
26864;SDS011;40618;51.166;10.322;2023-09-19T09:08:52;4.65;;;1.38;;
26864;SDS011;40618;51.166;10.322;2023-09-19T09:11:19;3.85;;;1.30;;
26864;SDS011;40618;51.166;10.322;2023-09-19T09:13:45;3.55;;;1.25;;
26864;SDS011;40618;51.166;10.322;2023-09-19T09:16:12;4.30;;;1.27;;
26864;SDS011;40618;51.166;10.322;2023-09-19T09:18:42;4.72;;;1.65;;
26864;SDS011;40618;51.166;10.322;2023-09-19T09:21:09;3.67;;;1.52;;
26864;SDS011;40618;51.166;10.322;2023-09-19T09:23:35;3.53;;;1.10;;
26864;SDS011;40618;51.166;10.322;2023-09-19T09:26:01;10.43;;;2.40;;
26864;SDS011;40618;51.166;10.322;2023-09-19T09:28:33;3.22;;;1.50;;
26864;SDS011;40618;51.166;10.322;2023-09-19T09:31:04;4.15;;;1.35;;
26864;SDS011;40618;51.166;10.322;2023-09-19T09:33:34;4.75;;;1.55;;
26864;SDS011;40618;51.166;10.322;2023-09-19T09:36:04;3.83;;;1.20;;
26864;SDS011;40618;51.166;10.322;2023-09-19T09:38:44;2.80;;;1.23;;
26864;SDS011;40618;51.166;10.322;2023-09-19T09:41:13;4.20;;;1.15;;
26864;SDS011;40618;51.166;10.322;2023-09-19T09:43:52;2.53;;;1.40;;
26864;SDS011;40618;51.166;10.322;2023-09-19T09:46:24;3.65;;;1.50;;
26864;SDS011;40618;51.166;10.322;2023-09-19T09:49:00;5.97;;;1.40;;
26864;SDS011;40618;51.166;10.322;2023-09-19T09:51:50;5.68;;;1.40;;
26864;SDS011;40618;51.166;10.322;2023-09-19T09:54:32;4.80;;;1.52;;
26864;SDS011;40618;51.166;10.322;2023-09-19T09:57:12;5.78;;;1.33;;
26864;SDS011;40618;51.166;10.322;2023-09-19T09:59:53;4.85;;;1.50;;
26864;SDS011;40618;51.166;10.322;2023-09-19T10:02:29;4.65;;;1.48;;
26864;SDS011;40618;51.166;10.322;2023-09-19T10:07:53;2.70;;;1.02;;
26864;SDS011;40618;51.166;10.322;2023-09-19T10:10:36;3.65;;;1.40;;
26864;SDS011;40618;51.166;10.322;2023-09-19T10:13:18;3.88;;;1.55;;
26864;SDS011;40618;51.166;10.322;2023-09-19T10:15:50;5.38;;;1.58;;
26864;SDS011;40618;51.166;10.322;2023-09-19T10:18:20;3.05;;;1.20;;
26864;SDS011;40618;51.166;10.322;2023-09-19T10:20:48;3.45;;;1.17;;
26864;SDS011;40618;51.166;10.322;2023-09-19T10:23:17;3.83;;;1.40;;
26864;SDS011;40618;51.166;10.322;2023-09-19T10:25:48;3.55;;;1.08;;
26864;SDS011;40618;51.166;10.322;2023-09-19T10:28:16;3.40;;;1.30;;
26864;SDS011;40618;51.166;10.322;2023-09-19T10:30:47;2.97;;;1.10;;
26864;SDS011;40618;51.166;10.322;2023-09-19T10:33:19;5.93;;;1.77;;
26864;SDS011;40618;51.166;10.322;2023-09-19T10:35:48;2.92;;;1.30;;
26864;SDS011;40618;51.166;10.322;2023-09-19T10:38:24;5.22;;;1.65;;
26864;SDS011;40618;51.166;10.322;2023-09-19T10:40:56;2.40;;;1.40;;
26864;SDS011;40618;51.166;10.322;2023-09-19T10:43:26;6.00;;;1.42;;
26864;SDS011;40618;51.166;10.322;2023-09-19T10:46:01;1.90;;;1.10;;
26864;SDS011;40618;51.166;10.322;2023-09-19T10:48:32;2.45;;;1.40;;
26864;SDS011;40618;51.166;10.322;2023-09-19T10:51:02;2.67;;;1.33;;
26864;SDS011;40618;51.166;10.322;2023-09-19T10:53:54;4.18;;;1.77;;
26864;SDS011;40618;51.166;10.322;2023-09-19T10:56:30;3.03;;;1.10;;
26864;SDS011;40618;51.166;10.322;2023-09-19T10:59:09;1.63;;;1.10;;
26864;SDS011;40618;51.166;10.322;2023-09-19T11:07:13;3.67;;;1.63;;
26864;SDS011;40618;51.166;10.322;2023-09-19T11:09:44;3.25;;;1.50;;
26864;SDS011;40618;51.166;10.322;2023-09-19T11:16:03;2.72;;;1.30;;
26864;SDS011;40618;51.166;10.322;2023-09-19T11:27:09;4.95;;;1.55;;
26864;SDS011;40618;51.166;10.322;2023-09-19T11:29:38;3.28;;;1.38;;
26864;SDS011;40618;51.166;10.322;2023-09-19T11:32:05;2.67;;;1.63;;
26864;SDS011;40618;51.166;10.322;2023-09-19T11:34:38;4.60;;;1.38;;
26864;SDS011;40618;51.166;10.322;2023-09-19T11:40:05;5.05;;;1.95;;
26864;SDS011;40618;51.166;10.322;2023-09-19T11:48:11;3.28;;;1.40;;
26864;SDS011;40618;51.166;10.322;2023-09-19T11:50:43;3.75;;;1.52;;
26864;SDS011;40618;51.166;10.322;2023-09-19T11:53:12;4.88;;;1.40;;
26864;SDS011;40618;51.166;10.322;2023-09-19T11:55:41;3.85;;;1.38;;
26864;SDS011;40618;51.166;10.322;2023-09-19T11:58:11;3.17;;;1.58;;
26864;SDS011;40618;51.166;10.322;2023-09-19T12:00:41;2.75;;;1.55;;
26864;SDS011;40618;51.166;10.322;2023-09-19T12:03:11;10.18;;;2.03;;
26864;SDS011;40618;51.166;10.322;2023-09-19T12:05:39;4.05;;;1.40;;
26864;SDS011;40618;51.166;10.322;2023-09-19T12:08:05;2.50;;;1.30;;
26864;SDS011;40618;51.166;10.322;2023-09-19T12:11:11;4.43;;;1.50;;
26864;SDS011;40618;51.166;10.322;2023-09-19T12:13:27;2.55;;;1.35;;
26864;SDS011;40618;51.166;10.322;2023-09-19T12:15:55;3.00;;;1.50;;
26864;SDS011;40618;51.166;10.322;2023-09-19T12:18:27;4.43;;;1.48;;
26864;SDS011;40618;51.166;10.322;2023-09-19T12:20:53;1.90;;;1.35;;
26864;SDS011;40618;51.166;10.322;2023-09-19T12:23:20;5.03;;;2.15;;
26864;SDS011;40618;51.166;10.322;2023-09-19T12:25:46;2.78;;;1.40;;
26864;SDS011;40618;51.166;10.322;2023-09-19T12:28:12;8.98;;;2.47;;
26864;SDS011;40618;51.166;10.322;2023-09-19T12:30:39;3.30;;;1.48;;
26864;SDS011;40618;51.166;10.322;2023-09-19T12:33:19;6.13;;;1.40;;
26864;SDS011;40618;51.166;10.322;2023-09-19T12:35:46;6.20;;;1.83;;
26864;SDS011;40618;51.166;10.322;2023-09-19T12:38:27;2.80;;;1.48;;
26864;SDS011;40618;51.166;10.322;2023-09-19T12:40:56;3.55;;;1.30;;
26864;SDS011;40618;51.166;10.322;2023-09-19T12:43:30;4.00;;;1.10;;
26864;SDS011;40618;51.166;10.322;2023-09-19T12:46:05;3.03;;;1.27;;
26864;SDS011;40618;51.166;10.322;2023-09-19T12:48:30;6.05;;;1.60;;
26864;SDS011;40618;51.166;10.322;2023-09-19T12:53:33;4.03;;;1.40;;
26864;SDS011;40618;51.166;10.322;2023-09-19T12:56:03;4.30;;;1.58;;
26864;SDS011;40618;51.166;10.322;2023-09-19T12:58:33;6.75;;;1.70;;
26864;SDS011;40618;51.166;10.322;2023-09-19T13:01:15;3.50;;;1.57;;
26864;SDS011;40618;51.166;10.322;2023-09-19T13:03:42;5.07;;;1.50;;
26864;SDS011;40618;51.166;10.322;2023-09-19T13:06:10;7.90;;;1.63;;
26864;SDS011;40618;51.166;10.322;2023-09-19T13:08:42;5.05;;;1.40;;
26864;SDS011;40618;51.166;10.322;2023-09-19T13:17:00;3.58;;;1.33;;
26864;SDS011;40618;51.166;10.322;2023-09-19T13:19:48;3.95;;;1.73;;
26864;SDS011;40618;51.166;10.322;2023-09-19T13:25:23;3.83;;;1.48;;
26864;SDS011;40618;51.166;10.322;2023-09-19T13:27:53;7.60;;;1.77;;
26864;SDS011;40618;51.166;10.322;2023-09-19T13:32:51;2.67;;;1.30;;
26864;SDS011;40618;51.166;10.322;2023-09-19T13:35:30;4.60;;;1.70;;
26864;SDS011;40618;51.166;10.322;2023-09-19T13:37:55;3.40;;;1.58;;
26864;SDS011;40618;51.166;10.322;2023-09-19T13:40:21;2.80;;;1.30;;
26864;SDS011;40618;51.166;10.322;2023-09-19T13:42:47;4.45;;;1.45;;
26864;SDS011;40618;51.166;10.322;2023-09-19T13:45:13;3.92;;;1.50;;
26864;SDS011;40618;51.166;10.322;2023-09-19T13:47:42;3.95;;;1.65;;
26864;SDS011;40618;51.166;10.322;2023-09-19T13:50:08;3.95;;;1.40;;
26864;SDS011;40618;51.166;10.322;2023-09-19T13:52:34;3.33;;;1.20;;
26864;SDS011;40618;51.166;10.322;2023-09-19T13:55:00;7.40;;;2.00;;
26864;SDS011;40618;51.166;10.322;2023-09-19T13:57:25;6.85;;;2.13;;
26864;SDS011;40618;51.166;10.322;2023-09-19T13:59:52;3.95;;;1.52;;
26864;SDS011;40618;51.166;10.322;2023-09-19T14:02:19;5.25;;;1.50;;
26864;SDS011;40618;51.166;10.322;2023-09-19T14:04:48;7.35;;;1.88;;
26864;SDS011;40618;51.166;10.322;2023-09-19T14:07:14;8.20;;;1.77;;
26864;SDS011;40618;51.166;10.322;2023-09-19T14:09:43;5.75;;;1.88;;
26864;SDS011;40618;51.166;10.322;2023-09-19T14:12:09;6.53;;;1.42;;
26864;SDS011;40618;51.166;10.322;2023-09-19T14:14:35;2.45;;;1.55;;
26864;SDS011;40618;51.166;10.322;2023-09-19T14:17:02;4.05;;;1.70;;
26864;SDS011;40618;51.166;10.322;2023-09-19T14:19:29;9.27;;;2.00;;
26864;SDS011;40618;51.166;10.322;2023-09-19T14:21:55;4.03;;;1.73;;
26864;SDS011;40618;51.166;10.322;2023-09-19T14:24:21;5.13;;;1.90;;
26864;SDS011;40618;51.166;10.322;2023-09-19T14:26:48;8.50;;;1.65;;
26864;SDS011;40618;51.166;10.322;2023-09-19T14:29:15;10.32;;;2.10;;
26864;SDS011;40618;51.166;10.322;2023-09-19T14:31:41;4.45;;;1.73;;
26864;SDS011;40618;51.166;10.322;2023-09-19T14:34:08;5.50;;;1.73;;
26864;SDS011;40618;51.166;10.322;2023-09-19T14:36:37;13.10;;;1.83;;
26864;SDS011;40618;51.166;10.322;2023-09-19T14:39:06;5.65;;;1.77;;
26864;SDS011;40618;51.166;10.322;2023-09-19T14:41:33;8.35;;;1.60;;
26864;SDS011;40618;51.166;10.322;2023-09-19T14:43:59;3.67;;;1.55;;
26864;SDS011;40618;51.166;10.322;2023-09-19T14:46:24;4.13;;;1.48;;
26864;SDS011;40618;51.166;10.322;2023-09-19T14:48:53;15.18;;;2.30;;
26864;SDS011;40618;51.166;10.322;2023-09-19T14:51:18;4.35;;;1.92;;
26864;SDS011;40618;51.166;10.322;2023-09-19T14:53:45;13.30;;;2.13;;
26864;SDS011;40618;51.166;10.322;2023-09-19T14:56:12;10.82;;;2.00;;
26864;SDS011;40618;51.166;10.322;2023-09-19T14:58:42;14.85;;;2.22;;
26864;SDS011;40618;51.166;10.322;2023-09-19T15:01:09;7.68;;;1.77;;
26864;SDS011;40618;51.166;10.322;2023-09-19T15:03:37;4.07;;;1.60;;
26864;SDS011;40618;51.166;10.322;2023-09-19T15:06:05;4.43;;;1.52;;
26864;SDS011;40618;51.166;10.322;2023-09-19T15:08:34;4.68;;;1.88;;
26864;SDS011;40618;51.166;10.322;2023-09-19T15:11:05;16.40;;;2.53;;
26864;SDS011;40618;51.166;10.322;2023-09-19T15:13:32;4.18;;;1.70;;
26864;SDS011;40618;51.166;10.322;2023-09-19T15:16:00;11.02;;;2.10;;
26864;SDS011;40618;51.166;10.322;2023-09-19T15:18:39;5.75;;;1.85;;
26864;SDS011;40618;51.166;10.322;2023-09-19T15:21:10;3.72;;;1.77;;
26864;SDS011;40618;51.166;10.322;2023-09-19T15:23:39;6.15;;;2.00;;
26864;SDS011;40618;51.166;10.322;2023-09-19T15:26:08;8.30;;;2.28;;
26864;SDS011;40618;51.166;10.322;2023-09-19T15:28:38;8.95;;;2.30;;
26864;SDS011;40618;51.166;10.322;2023-09-19T15:31:08;9.27;;;2.30;;
26864;SDS011;40618;51.166;10.322;2023-09-19T15:33:35;13.18;;;2.10;;
26864;SDS011;40618;51.166;10.322;2023-09-19T15:38:55;5.70;;;2.20;;
26864;SDS011;40618;51.166;10.322;2023-09-19T15:41:33;4.72;;;1.60;;
26864;SDS011;40618;51.166;10.322;2023-09-19T15:44:10;5.68;;;1.95;;
26864;SDS011;40618;51.166;10.322;2023-09-19T15:46:38;5.00;;;1.75;;
26864;SDS011;40618;51.166;10.322;2023-09-19T15:49:04;5.88;;;1.40;;
26864;SDS011;40618;51.166;10.322;2023-09-19T15:51:29;11.05;;;2.88;;